createdAt,value
2017-10-24T00:00:38.225Z,964.29
2017-10-24T00:01:38.243Z,964.3
2017-10-24T00:02:38.260Z,964.33
2017-10-24T00:03:38.286Z,964.35
2017-10-24T00:04:38.295Z,964.37
2017-10-24T00:05:38.321Z,964.38
2017-10-24T00:06:38.381Z,964.41
2017-10-24T00:07:38.349Z,964.41
2017-10-24T00:08:38.367Z,964.46
2017-10-24T00:09:38.388Z,964.45
2017-10-24T00:10:38.403Z,964.42
2017-10-24T00:11:38.422Z,964.49
2017-10-24T00:12:38.439Z,964.48
2017-10-24T00:13:38.455Z,964.47
2017-10-24T00:14:38.475Z,964.54
2017-10-24T00:15:38.492Z,964.48
2017-10-24T00:16:38.509Z,964.5
2017-10-24T00:17:38.527Z,964.48
2017-10-24T00:18:38.557Z,964.53
2017-10-24T00:19:38.563Z,964.54
2017-10-24T00:20:38.580Z,964.55
2017-10-24T00:21:38.600Z,964.58
2017-10-24T00:22:38.615Z,964.6
2017-10-24T00:23:38.632Z,964.57
2017-10-24T00:24:38.658Z,964.57
2017-10-24T00:25:38.669Z,964.48
2017-10-24T00:26:38.688Z,964.53
2017-10-24T00:27:38.705Z,964.58
2017-10-24T00:28:38.723Z,964.59
2017-10-24T00:29:38.740Z,964.59
2017-10-24T00:30:38.758Z,964.56
2017-10-24T00:31:38.776Z,964.59
2017-10-24T00:32:38.793Z,964.57
2017-10-24T00:33:38.812Z,964.61
2017-10-24T00:34:38.828Z,964.57
2017-10-24T00:35:38.846Z,964.57
2017-10-24T00:36:38.867Z,964.57
2017-10-24T00:37:38.882Z,964.52
2017-10-24T00:38:38.898Z,964.58
2017-10-24T00:39:38.917Z,964.58
2017-10-24T00:40:38.936Z,964.57
2017-10-24T00:41:39.003Z,964.59
2017-10-24T00:42:38.974Z,964.62
2017-10-24T00:43:38.987Z,964.59
2017-10-24T00:44:39.005Z,964.6
2017-10-24T00:45:39.023Z,964.6
2017-10-24T00:46:39.044Z,964.6
2017-10-24T00:47:39.058Z,964.55
2017-10-24T00:48:39.076Z,964.57
2017-10-24T00:49:39.093Z,964.59
2017-10-24T00:50:39.110Z,964.55
2017-10-24T00:51:39.129Z,964.57
2017-10-24T00:52:39.147Z,964.59
2017-10-24T00:53:39.165Z,964.56
2017-10-24T00:54:39.183Z,964.61
2017-10-24T00:55:39.205Z,964.6
2017-10-24T00:56:39.267Z,964.61
2017-10-24T00:57:39.235Z,964.66
2017-10-24T00:58:39.253Z,964.66
2017-10-24T00:59:39.270Z,964.67
2017-10-24T01:00:39.296Z,964.66
2017-10-24T01:01:39.306Z,964.63
2017-10-24T01:02:39.324Z,964.66
2017-10-24T01:03:39.341Z,964.68
2017-10-24T01:04:39.368Z,964.67
2017-10-24T01:05:39.378Z,964.63
2017-10-24T01:06:39.396Z,964.66
2017-10-24T01:07:39.412Z,964.6
2017-10-24T01:08:39.431Z,964.68
2017-10-24T01:09:39.448Z,964.66
2017-10-24T01:10:39.475Z,964.67
2017-10-24T01:11:39.481Z,964.67
2017-10-24T01:12:39.499Z,964.72
2017-10-24T01:13:39.521Z,964.7
2017-10-24T01:14:39.535Z,964.71
2017-10-24T01:15:39.552Z,964.69
2017-10-24T01:16:39.571Z,964.73
2017-10-24T01:17:39.589Z,964.73
2017-10-24T01:18:39.606Z,964.7
2017-10-24T01:19:39.622Z,964.73
2017-10-24T01:20:39.642Z,964.69
2017-10-24T01:21:39.660Z,964.7
2017-10-24T01:22:39.675Z,964.67
2017-10-24T01:23:39.694Z,964.66
2017-10-24T01:24:39.711Z,964.73
2017-10-24T01:25:39.728Z,964.74
2017-10-24T01:26:39.746Z,964.74
2017-10-24T01:27:39.766Z,964.73
2017-10-24T01:28:39.785Z,964.77
2017-10-24T01:29:39.798Z,964.76
2017-10-24T01:30:39.868Z,964.73
2017-10-24T01:31:39.835Z,964.72
2017-10-24T01:32:39.855Z,964.7
2017-10-24T01:33:39.871Z,964.73
2017-10-24T01:34:39.890Z,964.76
2017-10-24T01:35:39.908Z,964.75
2017-10-24T01:36:39.923Z,964.74
2017-10-24T01:37:39.942Z,964.79
2017-10-24T01:38:39.961Z,964.76
2017-10-24T01:39:39.981Z,964.78
2017-10-24T01:40:39.995Z,964.73
2017-10-24T01:41:40.013Z,964.77
2017-10-24T01:42:40.039Z,964.76
2017-10-24T01:43:40.050Z,964.76
2017-10-24T01:44:40.067Z,964.73
2017-10-24T01:45:40.097Z,964.73
2017-10-24T01:46:40.103Z,964.73
2017-10-24T01:47:40.250Z,964.72
2017-10-24T01:48:40.139Z,964.68
2017-10-24T01:49:40.156Z,964.72
2017-10-24T01:50:40.175Z,964.71
2017-10-24T01:51:40.198Z,964.64
2017-10-24T01:52:40.208Z,964.65
2017-10-24T01:53:40.227Z,964.69
2017-10-24T01:54:40.242Z,964.68
2017-10-24T01:55:40.272Z,964.7
2017-10-24T01:56:40.279Z,964.67
2017-10-24T01:57:40.299Z,964.69
2017-10-24T01:58:40.314Z,964.7
2017-10-24T01:59:40.333Z,964.7
2017-10-24T02:00:40.350Z,964.73
2017-10-24T02:01:40.372Z,964.7
2017-10-24T02:02:40.397Z,964.75
2017-10-24T02:03:40.405Z,964.75
2017-10-24T02:04:40.423Z,964.75
2017-10-24T02:05:40.489Z,964.79
2017-10-24T02:06:40.457Z,964.74
2017-10-24T02:07:40.476Z,964.74
2017-10-24T02:08:40.493Z,964.75
2017-10-24T02:09:40.511Z,964.78
2017-10-24T02:10:40.536Z,964.75
2017-10-24T02:11:40.546Z,964.84
2017-10-24T02:12:40.921Z,964.78
2017-10-24T02:13:40.582Z,964.83
2017-10-24T02:14:40.601Z,964.8
2017-10-24T02:15:40.618Z,964.79
2017-10-24T02:16:40.641Z,964.79
2017-10-24T02:17:40.655Z,964.78
2017-10-24T02:18:40.672Z,964.82
2017-10-24T02:19:40.691Z,964.8
2017-10-24T02:20:40.707Z,964.81
2017-10-24T02:21:40.726Z,964.77
2017-10-24T02:22:40.744Z,964.77
2017-10-24T02:23:40.762Z,964.8
2017-10-24T02:24:40.778Z,964.77
2017-10-24T02:25:40.797Z,964.78
2017-10-24T02:26:40.818Z,964.74
2017-10-24T02:27:40.832Z,964.76
2017-10-24T02:28:40.851Z,964.81
2017-10-24T02:29:40.867Z,964.83
2017-10-24T02:30:40.886Z,964.83
2017-10-24T02:31:40.902Z,964.84
2017-10-24T02:32:40.921Z,964.83
2017-10-24T02:33:40.938Z,964.89
2017-10-24T02:34:40.958Z,964.84
2017-10-24T02:35:40.973Z,964.82
2017-10-24T02:36:40.992Z,964.85
2017-10-24T02:37:41.012Z,964.86
2017-10-24T02:38:41.028Z,964.83
2017-10-24T02:39:41.095Z,964.9
2017-10-24T02:40:41.063Z,964.84
2017-10-24T02:41:41.081Z,964.83
2017-10-24T02:42:41.100Z,964.82
2017-10-24T02:43:41.117Z,964.86
2017-10-24T02:44:41.136Z,964.85
2017-10-24T02:45:41.153Z,964.92
2017-10-24T02:46:41.171Z,964.89
2017-10-24T02:47:41.188Z,964.83
2017-10-24T02:48:41.206Z,964.86
2017-10-24T02:49:41.225Z,964.86
2017-10-24T02:50:41.243Z,964.88
2017-10-24T02:51:41.261Z,964.93
2017-10-24T02:52:41.278Z,964.87
2017-10-24T02:53:41.296Z,964.96
2017-10-24T02:54:41.319Z,964.87
2017-10-24T02:55:41.332Z,964.87
2017-10-24T02:56:41.355Z,964.89
2017-10-24T02:57:41.367Z,964.88
2017-10-24T02:58:41.435Z,964.94
2017-10-24T02:59:41.404Z,964.94
2017-10-24T03:00:41.422Z,964.93
2017-10-24T03:01:41.440Z,964.94
2017-10-24T03:02:41.458Z,964.96
2017-10-24T03:03:41.476Z,964.93
2017-10-24T03:04:41.492Z,964.98
2017-10-24T03:05:41.511Z,964.92
2017-10-24T03:06:41.530Z,964.95
2017-10-24T03:07:41.547Z,964.97
2017-10-24T03:08:41.564Z,964.99
2017-10-24T03:09:41.602Z,965.01
2017-10-24T03:10:41.602Z,965.01
2017-10-24T03:11:41.619Z,965.02
2017-10-24T03:12:41.638Z,965
2017-10-24T03:13:41.656Z,964.99
2017-10-24T03:14:41.729Z,965.01
2017-10-24T03:15:41.691Z,965.04
2017-10-24T03:16:41.715Z,965.04
2017-10-24T03:17:41.728Z,965.03
2017-10-24T03:18:41.745Z,965.08
2017-10-24T03:19:41.765Z,965.03
2017-10-24T03:20:41.782Z,965.05
2017-10-24T03:21:41.799Z,965.04
2017-10-24T03:22:41.819Z,965.07
2017-10-24T03:23:41.836Z,965.01
2017-10-24T03:24:41.853Z,965.01
2017-10-24T03:25:41.872Z,964.99
2017-10-24T03:26:41.889Z,965.02
2017-10-24T03:27:41.908Z,965.03
2017-10-24T03:28:41.926Z,965.06
2017-10-24T03:29:41.992Z,965.09
2017-10-24T03:30:41.968Z,965.07
2017-10-24T03:31:41.979Z,965.1
2017-10-24T03:32:41.997Z,965.09
2017-10-24T03:33:42.013Z,965.1
2017-10-24T03:34:42.032Z,965.05
2017-10-24T03:35:42.052Z,965.09
2017-10-24T03:36:42.068Z,965.11
2017-10-24T03:37:42.085Z,965.06
2017-10-24T03:38:42.102Z,965.07
2017-10-24T03:39:42.124Z,965.12
2017-10-24T03:40:42.138Z,965.11
2017-10-24T03:41:42.157Z,965.12
2017-10-24T03:42:42.175Z,965.11
2017-10-24T03:43:42.194Z,965.14
2017-10-24T03:44:42.211Z,965.1
2017-10-24T03:45:42.229Z,965.14
2017-10-24T03:46:42.295Z,965.13
2017-10-24T03:47:42.264Z,965.16
2017-10-24T03:48:42.280Z,965.13
2017-10-24T03:49:42.299Z,965.14
2017-10-24T03:50:42.317Z,965.13
2017-10-24T03:51:42.334Z,965.19
2017-10-24T03:52:42.351Z,965.18
2017-10-24T03:53:42.369Z,965.22
2017-10-24T03:54:42.387Z,965.25
2017-10-24T03:55:42.406Z,965.28
2017-10-24T03:56:42.432Z,965.24
2017-10-24T03:57:42.447Z,965.26
2017-10-24T03:58:42.476Z,965.25
2017-10-24T03:59:42.475Z,965.22
2017-10-24T04:00:42.502Z,965.26
2017-10-24T04:01:42.561Z,965.24
2017-10-24T04:02:42.529Z,965.28
2017-10-24T04:03:42.548Z,965.22
2017-10-24T04:04:42.565Z,965.29
2017-10-24T04:05:42.584Z,965.27
2017-10-24T04:06:42.612Z,965.28
2017-10-24T04:07:42.617Z,965.29
2017-10-24T04:08:42.635Z,965.27
2017-10-24T04:09:42.654Z,965.3
2017-10-24T04:10:42.671Z,965.31
2017-10-24T04:11:42.690Z,965.31
2017-10-24T04:12:42.708Z,965.34
2017-10-24T04:13:42.725Z,965.37
2017-10-24T04:14:42.743Z,965.29
2017-10-24T04:15:42.761Z,965.3
2017-10-24T04:16:42.830Z,965.32
2017-10-24T04:17:42.797Z,965.31
2017-10-24T04:18:42.814Z,965.31
2017-10-24T04:19:42.834Z,965.3
2017-10-24T04:20:42.851Z,965.34
2017-10-24T04:21:42.867Z,965.33
2017-10-24T04:22:42.885Z,965.31
2017-10-24T04:23:42.902Z,965.35
2017-10-24T04:24:42.920Z,965.31
2017-10-24T04:25:42.939Z,965.35
2017-10-24T04:26:42.957Z,965.31
2017-10-24T04:27:42.975Z,965.33
2017-10-24T04:28:43.005Z,965.31
2017-10-24T04:29:43.009Z,965.33
2017-10-24T04:30:43.029Z,965.34
2017-10-24T04:31:43.097Z,965.29
2017-10-24T04:32:43.063Z,965.31
2017-10-24T04:33:43.081Z,965.32
2017-10-24T04:34:43.101Z,965.31
2017-10-24T04:35:43.117Z,965.27
2017-10-24T04:36:43.134Z,965.33
2017-10-24T04:37:43.152Z,965.31
2017-10-24T04:38:43.172Z,965.31
2017-10-24T04:39:43.187Z,965.33
2017-10-24T04:40:43.206Z,965.38
2017-10-24T04:41:43.226Z,965.36
2017-10-24T04:42:43.242Z,965.35
2017-10-24T04:43:43.258Z,965.35
2017-10-24T04:44:43.277Z,965.33
2017-10-24T04:45:43.296Z,965.31
2017-10-24T04:46:43.318Z,965.33
2017-10-24T04:47:43.332Z,965.34
2017-10-24T04:48:43.399Z,965.31
2017-10-24T04:49:43.369Z,965.34
2017-10-24T04:50:43.386Z,965.37
2017-10-24T04:51:43.414Z,965.38
2017-10-24T04:52:43.422Z,965.33
2017-10-24T04:53:43.443Z,965.37
2017-10-24T04:54:43.460Z,965.39
2017-10-24T04:55:43.477Z,965.43
2017-10-24T04:56:43.494Z,965.45
2017-10-24T04:57:43.512Z,965.44
2017-10-24T04:58:43.530Z,965.45
2017-10-24T04:59:43.550Z,965.48
2017-10-24T05:00:43.567Z,965.41
2017-10-24T05:01:43.584Z,965.43
2017-10-24T05:02:43.602Z,965.42
2017-10-24T05:03:43.622Z,965.46
2017-10-24T05:04:43.640Z,965.42
2017-10-24T05:05:43.657Z,965.49
2017-10-24T05:06:43.675Z,965.45
2017-10-24T05:07:43.743Z,965.47
2017-10-24T05:08:43.726Z,965.51
2017-10-24T05:09:43.730Z,965.56
2017-10-24T05:10:43.746Z,965.54
2017-10-24T05:11:43.765Z,965.54
2017-10-24T05:12:43.781Z,965.58
2017-10-24T05:13:43.799Z,965.57
2017-10-24T05:14:43.819Z,965.6
2017-10-24T05:15:43.837Z,965.61
2017-10-24T05:16:43.854Z,965.56
2017-10-24T05:17:43.873Z,965.58
2017-10-24T05:18:43.891Z,965.64
2017-10-24T05:19:43.907Z,965.61
2017-10-24T05:20:43.925Z,965.57
2017-10-24T05:21:43.945Z,965.61
2017-10-24T05:22:44.012Z,965.58
2017-10-24T05:23:43.985Z,965.63
2017-10-24T05:24:43.998Z,965.61
2017-10-24T05:25:44.016Z,965.62
2017-10-24T05:26:44.033Z,965.62
2017-10-24T05:27:44.053Z,965.6
2017-10-24T05:28:44.070Z,965.59
2017-10-24T05:29:44.089Z,965.64
2017-10-24T05:30:44.106Z,965.63
2017-10-24T05:31:44.125Z,965.64
2017-10-24T05:32:44.143Z,965.67
2017-10-24T05:33:44.160Z,965.69
2017-10-24T05:34:44.177Z,965.68
2017-10-24T05:35:44.197Z,965.69
2017-10-24T05:36:44.215Z,965.65
2017-10-24T05:37:44.232Z,965.66
2017-10-24T05:38:44.250Z,965.74
2017-10-24T05:39:44.267Z,965.67
2017-10-24T05:40:44.287Z,965.65
2017-10-24T05:41:44.303Z,965.72
2017-10-24T05:42:44.322Z,965.69
2017-10-24T05:43:44.339Z,965.71
2017-10-24T05:44:44.359Z,965.74
2017-10-24T05:45:44.380Z,965.74
2017-10-24T05:46:44.393Z,965.73
2017-10-24T05:47:44.460Z,965.81
2017-10-24T05:48:44.430Z,965.77
2017-10-24T05:49:44.446Z,965.75
2017-10-24T05:50:44.465Z,965.75
2017-10-24T05:51:44.483Z,965.76
2017-10-24T05:52:44.501Z,965.78
2017-10-24T05:53:44.518Z,965.78
2017-10-24T05:54:44.537Z,965.74
2017-10-24T05:55:44.553Z,965.76
2017-10-24T05:56:44.572Z,965.8
2017-10-24T05:57:44.590Z,965.8
2017-10-24T05:58:44.611Z,965.79
2017-10-24T05:59:44.624Z,965.76
2017-10-24T06:00:44.651Z,965.77
2017-10-24T06:01:44.663Z,965.77
2017-10-24T06:02:44.681Z,965.79
2017-10-24T06:03:44.748Z,965.77
2017-10-24T06:04:44.716Z,965.78
2017-10-24T06:05:44.734Z,965.79
2017-10-24T06:06:44.755Z,965.83
2017-10-24T06:07:44.769Z,965.81
2017-10-24T06:08:44.799Z,965.83
2017-10-24T06:09:44.805Z,965.79
2017-10-24T06:10:44.823Z,965.84
2017-10-24T06:11:44.840Z,965.81
2017-10-24T06:12:44.860Z,965.85
2017-10-24T06:13:44.878Z,965.85
2017-10-24T06:14:44.895Z,965.83
2017-10-24T06:15:44.935Z,965.89
2017-10-24T06:16:44.932Z,965.85
2017-10-24T06:17:44.949Z,965.84
2017-10-24T06:18:45.018Z,965.84
2017-10-24T06:19:44.986Z,965.88
2017-10-24T06:20:45.004Z,965.88
2017-10-24T06:21:45.022Z,965.91
2017-10-24T06:22:45.041Z,965.91
2017-10-24T06:23:45.057Z,965.92
2017-10-24T06:24:45.076Z,965.9
2017-10-24T06:25:45.093Z,965.93
2017-10-24T06:26:45.114Z,965.92
2017-10-24T06:27:45.130Z,965.97
2017-10-24T06:28:45.149Z,965.92
2017-10-24T06:29:45.168Z,965.95
2017-10-24T06:30:45.186Z,965.94
2017-10-24T06:31:45.204Z,965.93
2017-10-24T06:32:45.221Z,965.95
2017-10-24T06:33:45.241Z,965.95
2017-10-24T06:34:45.259Z,965.97
2017-10-24T06:35:45.277Z,965.99
2017-10-24T06:36:45.296Z,966.03
2017-10-24T06:37:45.364Z,966.03
2017-10-24T06:38:45.332Z,965.98
2017-10-24T06:39:45.350Z,965.97
2017-10-24T06:40:45.369Z,965.96
2017-10-24T06:41:45.386Z,965.98
2017-10-24T06:42:45.405Z,966
2017-10-24T06:43:45.424Z,965.95
2017-10-24T06:44:45.461Z,966
2017-10-24T06:45:45.460Z,965.96
2017-10-24T06:46:45.480Z,966.05
2017-10-24T06:47:45.498Z,966.06
2017-10-24T06:48:45.516Z,966.08
2017-10-24T06:49:45.535Z,966.09
2017-10-24T06:50:45.553Z,966.1
2017-10-24T06:51:45.571Z,966.14
2017-10-24T06:52:45.791Z,966.15
2017-10-24T06:53:45.610Z,966.14
2017-10-24T06:54:45.628Z,966.13
2017-10-24T06:55:45.647Z,966.12
2017-10-24T06:56:45.666Z,966.1
2017-10-24T06:57:45.685Z,966.03
2017-10-24T06:58:45.703Z,966.09
2017-10-24T06:59:45.729Z,966.11
2017-10-24T07:00:45.740Z,966.1
2017-10-24T07:01:45.759Z,966.08
2017-10-24T07:02:45.780Z,966.1
2017-10-24T07:03:45.798Z,966.09
2017-10-24T07:04:45.817Z,966.07
2017-10-24T07:05:45.840Z,966.1
2017-10-24T07:06:45.854Z,966.09
2017-10-24T07:07:45.924Z,966.13
2017-10-24T07:08:45.892Z,966.19
2017-10-24T07:09:45.912Z,966.26
2017-10-24T07:10:45.932Z,966.3
2017-10-24T07:11:45.951Z,966.3
2017-10-24T07:12:45.970Z,966.25
2017-10-24T07:13:45.988Z,966.26
2017-10-24T07:14:46.008Z,966.25
2017-10-24T07:15:46.032Z,966.22
2017-10-24T07:16:46.045Z,966.16
2017-10-24T07:17:46.065Z,966.19
2017-10-24T07:18:46.082Z,966.17
2017-10-24T07:19:46.102Z,966.17
2017-10-24T07:20:46.120Z,966.15
2017-10-24T07:21:46.142Z,966.18
2017-10-24T07:22:46.211Z,966.2
2017-10-24T07:23:46.179Z,966.24
2017-10-24T07:24:46.200Z,966.23
2017-10-24T07:25:46.222Z,966.15
2017-10-24T07:26:46.237Z,966.2
2017-10-24T07:27:46.257Z,966.18
2017-10-24T07:28:46.275Z,966.24
2017-10-24T07:29:46.295Z,966.28
2017-10-24T07:30:46.322Z,966.32
2017-10-24T07:31:46.334Z,966.31
2017-10-24T07:32:46.353Z,966.38
2017-10-24T07:33:46.377Z,966.41
2017-10-24T07:34:46.389Z,966.5
2017-10-24T07:35:46.409Z,966.46
2017-10-24T07:36:46.429Z,966.45
2017-10-24T07:37:46.449Z,966.45
2017-10-24T07:38:46.468Z,966.39
2017-10-24T07:39:46.487Z,966.39
2017-10-24T07:40:46.506Z,966.34
2017-10-24T07:41:46.575Z,966.35
2017-10-24T07:42:46.547Z,966.42
2017-10-24T07:43:46.562Z,966.46
2017-10-24T07:44:46.583Z,966.43
2017-10-24T07:45:46.602Z,966.45
2017-10-24T07:46:46.625Z,966.45
2017-10-24T07:47:46.641Z,966.44
2017-10-24T07:48:46.665Z,966.49
2017-10-24T07:49:46.687Z,966.43
2017-10-24T07:50:46.700Z,966.46
2017-10-24T07:51:46.717Z,966.4
2017-10-24T07:52:46.736Z,966.39
2017-10-24T07:53:46.755Z,966.4
2017-10-24T07:54:46.774Z,966.37
2017-10-24T07:55:46.795Z,966.4
2017-10-24T07:56:46.864Z,966.37
2017-10-24T07:57:46.832Z,966.42
2017-10-24T07:58:46.851Z,966.44
2017-10-24T07:59:46.871Z,966.44
2017-10-24T08:00:46.889Z,966.45
2017-10-24T08:01:46.910Z,966.45
2017-10-24T08:02:46.929Z,966.51
2017-10-24T08:03:46.948Z,966.55
2017-10-24T08:04:46.970Z,966.54
2017-10-24T08:05:46.989Z,966.51
2017-10-24T08:06:47.009Z,966.58
2017-10-24T08:07:47.032Z,966.59
2017-10-24T08:08:47.046Z,966.6
2017-10-24T08:09:47.066Z,966.65
2017-10-24T08:10:47.085Z,966.64
2017-10-24T08:11:47.105Z,966.62
2017-10-24T08:12:47.122Z,966.61
2017-10-24T08:13:47.143Z,966.61
2017-10-24T08:14:47.162Z,966.64
2017-10-24T08:15:47.182Z,966.65
2017-10-24T08:16:47.203Z,966.64
2017-10-24T08:17:47.223Z,966.64
2017-10-24T08:18:47.247Z,966.65
2017-10-24T08:19:47.261Z,966.69
2017-10-24T08:20:47.319Z,966.64
2017-10-24T08:21:47.305Z,966.64
2017-10-24T08:22:47.320Z,966.66
2017-10-24T08:23:47.340Z,966.7
2017-10-24T08:24:47.360Z,966.69
2017-10-24T08:25:47.380Z,966.72
2017-10-24T08:26:47.399Z,966.65
2017-10-24T08:27:47.420Z,966.73
2017-10-24T08:28:47.438Z,966.7
2017-10-24T08:29:47.457Z,966.69
2017-10-24T08:30:47.527Z,966.63
2017-10-24T08:31:47.499Z,966.66
2017-10-24T08:32:47.519Z,966.66
2017-10-24T08:33:47.540Z,966.63
2017-10-24T08:34:47.558Z,966.59
2017-10-24T08:35:47.583Z,966.6
2017-10-24T08:36:47.603Z,966.58
2017-10-24T08:37:47.617Z,966.58
2017-10-24T08:38:47.638Z,966.57
2017-10-24T08:39:47.659Z,966.57
2017-10-24T08:40:47.686Z,966.57
2017-10-24T08:41:47.698Z,966.53
2017-10-24T08:42:47.719Z,966.53
2017-10-24T08:43:47.743Z,966.63
2017-10-24T08:44:47.762Z,966.61
2017-10-24T08:45:47.832Z,966.68
2017-10-24T08:46:47.802Z,966.67
2017-10-24T08:47:47.827Z,966.65
2017-10-24T08:48:47.842Z,966.7
2017-10-24T08:49:47.863Z,966.69
2017-10-24T08:50:47.884Z,966.68
2017-10-24T08:51:47.905Z,966.71
2017-10-24T08:52:47.925Z,966.72
2017-10-24T08:53:47.946Z,966.72
2017-10-24T08:54:47.967Z,966.72
2017-10-24T08:55:47.988Z,966.71
2017-10-24T08:56:48.009Z,966.75
2017-10-24T08:57:48.030Z,966.73
2017-10-24T08:58:48.050Z,966.77
2017-10-24T08:59:48.071Z,966.8
2017-10-24T09:00:48.092Z,966.77
2017-10-24T09:01:48.114Z,966.83
2017-10-24T09:02:48.134Z,966.85
2017-10-24T09:03:48.156Z,966.85
2017-10-24T09:04:48.177Z,966.87
2017-10-24T09:05:48.197Z,966.86
2017-10-24T09:06:48.218Z,966.89
2017-10-24T09:07:48.239Z,966.87
2017-10-24T09:08:48.261Z,966.92
2017-10-24T09:09:48.281Z,966.9
2017-10-24T09:10:48.302Z,966.91
2017-10-24T09:11:48.324Z,966.97
2017-10-24T09:12:48.345Z,966.98
2017-10-24T09:13:48.369Z,966.98
2017-10-24T09:14:48.388Z,966.99
2017-10-24T09:15:48.514Z,966.97
2017-10-24T09:16:48.434Z,966.99
2017-10-24T09:17:48.499Z,966.98
2017-10-24T09:18:48.472Z,966.94
2017-10-24T09:19:48.493Z,966.91
2017-10-24T09:20:48.515Z,966.92
2017-10-24T09:21:48.535Z,966.94
2017-10-24T09:22:48.557Z,966.86
2017-10-24T09:23:48.582Z,966.89
2017-10-24T09:24:48.599Z,966.89
2017-10-24T09:25:48.620Z,966.86
2017-10-24T09:26:48.642Z,966.87
2017-10-24T09:27:48.664Z,966.85
2017-10-24T09:28:48.684Z,966.84
2017-10-24T09:29:48.706Z,966.79
2017-10-24T09:30:48.728Z,966.8
2017-10-24T09:31:48.749Z,966.75
2017-10-24T09:32:48.821Z,966.71
2017-10-24T09:33:48.794Z,966.72
2017-10-24T09:34:48.814Z,966.72
2017-10-24T09:35:48.833Z,966.71
2017-10-24T09:36:48.856Z,966.73
2017-10-24T09:37:48.882Z,966.75
2017-10-24T09:38:48.899Z,966.72
2017-10-24T09:39:48.920Z,966.73
2017-10-24T09:40:48.942Z,966.7
2017-10-24T09:41:48.964Z,966.66
2017-10-24T09:42:48.984Z,966.65
2017-10-24T09:43:49.006Z,966.66
2017-10-24T09:44:49.027Z,966.68
2017-10-24T09:45:49.048Z,966.68
2017-10-24T09:46:49.071Z,966.66
2017-10-24T09:47:49.091Z,966.65
2017-10-24T09:48:49.114Z,966.73
2017-10-24T09:49:49.133Z,966.77
2017-10-24T09:50:49.206Z,966.74
2017-10-24T09:51:49.178Z,966.75
2017-10-24T09:52:49.199Z,966.77
2017-10-24T09:53:49.222Z,966.79
2017-10-24T09:54:49.242Z,966.77
2017-10-24T09:55:49.265Z,966.78
2017-10-24T09:56:49.289Z,966.8
2017-10-24T09:57:49.327Z,966.71
2017-10-24T09:58:49.336Z,966.72
2017-10-24T09:59:49.357Z,966.74
2017-10-24T10:00:49.378Z,966.7
2017-10-24T10:01:49.401Z,966.68
2017-10-24T10:02:49.424Z,966.69
2017-10-24T10:03:49.450Z,966.72
2017-10-24T10:04:49.471Z,966.67
2017-10-24T10:05:49.495Z,966.7
2017-10-24T10:06:49.523Z,966.66
2017-10-24T10:07:49.592Z,966.68
2017-10-24T10:08:49.564Z,966.68
2017-10-24T10:09:49.589Z,966.66
2017-10-24T10:10:49.614Z,966.66
2017-10-24T10:11:49.638Z,966.55
2017-10-24T10:12:49.660Z,966.58
2017-10-24T10:13:49.689Z,966.51
2017-10-24T10:14:49.711Z,966.49
2017-10-24T10:15:49.734Z,966.55
2017-10-24T10:16:49.759Z,966.53
2017-10-24T10:17:49.795Z,966.53
2017-10-24T10:18:49.809Z,966.63
2017-10-24T10:19:49.831Z,966.55
2017-10-24T10:20:49.858Z,966.5
2017-10-24T10:21:49.885Z,966.5
2017-10-24T10:22:49.957Z,966.48
2017-10-24T10:23:49.931Z,966.42
2017-10-24T10:24:49.959Z,966.38
2017-10-24T10:25:49.985Z,966.38
2017-10-24T10:26:50.008Z,966.37
2017-10-24T10:27:50.033Z,966.47
2017-10-24T10:28:50.064Z,966.43
2017-10-24T10:29:50.085Z,966.36
2017-10-24T10:30:50.109Z,966.4
2017-10-24T10:31:50.135Z,966.36
2017-10-24T10:32:50.158Z,966.4
2017-10-24T10:33:50.183Z,966.35
2017-10-24T10:34:50.209Z,966.31
2017-10-24T10:35:50.235Z,966.41
2017-10-24T10:36:50.260Z,966.34
2017-10-24T10:37:50.335Z,966.4
2017-10-24T10:38:50.310Z,966.3
2017-10-24T10:39:50.337Z,966.36
2017-10-24T10:40:50.362Z,966.31
2017-10-24T10:41:50.387Z,966.27
2017-10-24T10:42:50.411Z,966.24
2017-10-24T10:43:50.437Z,966.27
2017-10-24T10:44:50.462Z,966.21
2017-10-24T10:45:50.488Z,966.22
2017-10-24T10:46:50.513Z,966.32
2017-10-24T10:47:50.538Z,966.27
2017-10-24T10:48:50.562Z,966.33
2017-10-24T10:49:50.587Z,966.31
2017-10-24T10:50:50.613Z,966.3
2017-10-24T10:51:50.638Z,966.33
2017-10-24T10:52:50.711Z,966.29
2017-10-24T10:53:50.691Z,966.26
2017-10-24T10:54:50.712Z,966.3
2017-10-24T10:55:50.735Z,966.23
2017-10-24T10:56:50.762Z,966.34
2017-10-24T10:57:50.785Z,966.22
2017-10-24T10:58:50.812Z,966.21
2017-10-24T10:59:50.834Z,966.25
2017-10-24T11:00:50.860Z,966.33
2017-10-24T11:01:50.886Z,966.34
2017-10-24T11:02:50.910Z,966.38
2017-10-24T11:03:50.934Z,966.32
2017-10-24T11:04:50.966Z,966.36
2017-10-24T11:05:50.983Z,966.3
2017-10-24T11:06:51.008Z,966.29
2017-10-24T11:07:51.039Z,966.28
2017-10-24T11:08:51.108Z,966.26
2017-10-24T11:09:51.084Z,966.33
2017-10-24T11:10:51.109Z,966.28
2017-10-24T11:11:51.135Z,966.24
2017-10-24T11:12:51.170Z,966.22
2017-10-24T11:13:51.186Z,966.3
2017-10-24T11:14:51.210Z,966.27
2017-10-24T11:15:51.238Z,966.28
2017-10-24T11:16:51.261Z,966.26
2017-10-24T11:17:51.285Z,966.31
2017-10-24T11:18:51.310Z,966.28
2017-10-24T11:19:51.335Z,966.44
2017-10-24T11:20:51.373Z,966.37
2017-10-24T11:21:51.386Z,966.35
2017-10-24T11:22:51.409Z,966.27
2017-10-24T11:23:51.485Z,966.36
2017-10-24T11:24:51.459Z,966.34
2017-10-24T11:25:51.485Z,966.3
2017-10-24T11:26:51.510Z,966.36
2017-10-24T11:27:51.549Z,966.37
2017-10-24T11:28:51.560Z,966.27
2017-10-24T11:29:51.585Z,966.26
2017-10-24T11:30:51.608Z,966.25
2017-10-24T11:31:51.641Z,966.28
2017-10-24T11:32:51.659Z,966.32
2017-10-24T11:33:51.684Z,966.31
2017-10-24T11:34:51.710Z,966.5
2017-10-24T11:35:51.732Z,966.24
2017-10-24T11:36:51.758Z,966.21
2017-10-24T11:37:51.783Z,966.28
2017-10-24T11:38:51.808Z,966.42
2017-10-24T11:39:51.885Z,966.29
2017-10-24T11:40:51.858Z,966.2
2017-10-24T11:41:51.884Z,966.16
2017-10-24T11:42:51.911Z,966.11
2017-10-24T11:43:51.935Z,966.07
2017-10-24T11:44:51.962Z,966.04
2017-10-24T11:45:51.986Z,966.06
2017-10-24T11:46:52.011Z,966.05
2017-10-24T11:47:52.038Z,966.08
2017-10-24T11:48:52.063Z,966.08
2017-10-24T11:49:52.090Z,966.23
2017-10-24T11:50:52.116Z,966.16
2017-10-24T11:51:52.141Z,966.08
2017-10-24T11:52:52.167Z,966.06
2017-10-24T11:53:52.198Z,966.14
2017-10-24T11:54:52.269Z,965.99
2017-10-24T11:55:52.247Z,965.97
2017-10-24T11:56:52.270Z,965.89
2017-10-24T11:57:52.296Z,965.91
2017-10-24T11:58:52.323Z,966.26
2017-10-24T11:59:52.355Z,966.34
2017-10-24T12:00:52.376Z,966.34
2017-10-24T12:01:52.403Z,966.45
2017-10-24T12:02:52.428Z,966.37
2017-10-24T12:03:52.457Z,966.41
2017-10-24T12:04:52.488Z,966.27
2017-10-24T12:05:52.516Z,966.37
2017-10-24T12:06:52.542Z,966.4
2017-10-24T12:07:52.572Z,966.37
2017-10-24T12:08:52.599Z,966
2017-10-24T12:09:52.629Z,966.06
2017-10-24T12:10:52.659Z,966.3
2017-10-24T12:11:52.690Z,966.34
2017-10-24T12:12:52.718Z,966.47
2017-10-24T12:13:52.748Z,966.48
2017-10-24T12:14:52.777Z,966.46
2017-10-24T12:15:52.808Z,966.44
2017-10-24T12:16:52.838Z,966.43
2017-10-24T12:17:52.868Z,966.5
2017-10-24T12:18:52.899Z,966.52
2017-10-24T12:19:52.930Z,966.59
2017-10-24T12:20:52.962Z,966.65
2017-10-24T12:21:52.993Z,966.45
2017-10-24T12:22:53.024Z,966.21
2017-10-24T12:23:53.062Z,966.1
2017-10-24T12:24:53.089Z,966.3
2017-10-24T12:25:53.122Z,966.34
2017-10-24T12:26:53.154Z,966.43
2017-10-24T12:27:53.185Z,965.94
2017-10-24T12:28:53.221Z,965.85
2017-10-24T12:29:53.246Z,965.87
2017-10-24T12:30:53.278Z,965.92
2017-10-24T12:31:53.309Z,965.93